Time;durP1;ratioP1;P1;durP2;ratioP2;P2;SDS_P1;SDS_P2;PMS_P1;PMS_P2;Temp;Humidity;BMP_temperature;BMP_pressure;BME280_temperature;BME280_humidity;BME280_pressure;Samples;Min_cycle;Max_cycle;Signal;HPM_P1;HPM_P2
2022/05/23 03:01:20;;;;;;;10.97;10.37;;;13.80;99.90;;;;;;5493236;23;20237;-76
2022/05/23 03:03:46;;;;;;;12.20;11.60;;;13.80;99.90;;;;;;4955423;29;20693;-77
2022/05/23 03:06:12;;;;;;;13.03;12.17;;;13.90;99.90;;;;;;4955574;28;20186;-76
2022/05/23 03:08:38;;;;;;;14.43;13.37;;;14.00;99.90;;;;;;4960935;29;20193;-77
2022/05/23 03:11:06;;;;;;;21.50;20.30;;;14.00;99.90;;;;;;4963697;28;20202;-76
2022/05/23 03:13:34;;;;;;;22.70;21.50;;;14.00;99.90;;;;;;4975584;23;20232;-74
2022/05/23 03:16:01;;;;;;;19.23;17.97;;;13.90;99.90;;;;;;4974059;28;20679;-74
2022/05/23 03:18:27;;;;;;;21.77;20.67;;;14.00;99.90;;;;;;4973883;28;20187;-74
2022/05/23 03:21:05;;;;;;;17.60;16.70;;;14.00;99.90;;;;;;4974984;28;20264;-74
2022/05/23 03:29:05;;;;;;;33.87;31.97;;;14.20;99.90;;;;;;4938288;29;20210;-74
2022/05/23 03:31:33;;;;;;;35.23;33.50;;;14.20;99.90;;;;;;4952743;29;20182;-74
2022/05/23 03:33:59;;;;;;;29.23;27.57;;;14.30;99.90;;;;;;4938379;29;20674;-75
2022/05/23 03:36:25;;;;;;;36.93;34.60;;;14.20;99.90;;;;;;4952720;28;20190;-74
2022/05/23 03:38:51;;;;;;;38.37;36.40;;;14.30;99.90;;;;;;4955093;28;20185;-75
2022/05/23 03:41:17;;;;;;;36.03;33.97;;;14.30;99.90;;;;;;4955499;29;20689;-76
2022/05/23 03:43:43;;;;;;;31.37;29.50;;;14.40;99.90;;;;;;4955256;28;20733;-75
2022/05/23 03:46:11;;;;;;;37.50;35.50;;;14.40;99.90;;;;;;4954336;28;20281;-76
2022/05/23 03:48:38;;;;;;;37.83;35.83;;;14.50;99.90;;;;;;4954941;28;20182;-75
2022/05/23 03:51:05;;;;;;;40.47;37.97;;;14.50;99.90;;;;;;4955463;28;20284;-75
2022/05/23 03:53:31;;;;;;;40.07;38.13;;;14.50;99.90;;;;;;4957069;28;20209;-75
2022/05/23 03:55:57;;;;;;;52.37;49.67;;;14.40;99.90;;;;;;4958639;28;20802;-76
2022/05/23 03:58:25;;;;;;;48.37;45.67;;;14.30;99.90;;;;;;4960791;28;20650;-75
2022/05/23 04:00:51;;;;;;;67.67;64.13;;;14.40;99.90;;;;;;4955942;28;20210;-69
2022/05/23 04:03:18;;;;;;;61.17;58.17;;;14.40;99.90;;;;;;4954969;28;20206;-68
2022/05/23 04:05:45;;;;;;;66.13;62.67;;;14.50;99.90;;;;;;4955253;28;20272;-69
2022/05/23 04:08:12;;;;;;;64.57;61.37;;;14.50;99.90;;;;;;4954784;28;20177;-69
2022/05/23 04:10:40;;;;;;;67.07;63.70;;;14.50;99.90;;;;;;4956816;28;20560;-69
2022/05/23 04:13:07;;;;;;;58.67;55.07;;;14.60;99.90;;;;;;4950988;28;20325;-69
2022/05/23 04:15:33;;;;;;;44.97;41.57;;;14.70;99.90;;;;;;4945997;29;20186;-68
2022/05/23 04:17:58;;;;;;;17.53;16.20;;;14.80;99.90;;;;;;4954115;28;20198;-69
2022/05/23 04:20:26;;;;;;;14.47;13.30;;;14.90;99.90;;;;;;4954376;28;20269;-69
2022/05/23 04:22:53;;;;;;;14.70;13.77;;;15.00;99.90;;;;;;4954232;28;20228;-69
2022/05/23 04:25:19;;;;;;;12.47;11.77;;;15.10;99.90;;;;;;4954232;29;20221;-69
2022/05/23 04:27:45;;;;;;;18.63;17.63;;;15.20;99.90;;;;;;4953810;28;20662;-69
2022/05/23 04:30:11;;;;;;;55.57;52.67;;;15.30;99.90;;;;;;4952963;29;20188;-69
2022/05/23 04:35:22;;;;;;;34.47;32.57;;;15.50;99.90;;;;;;4955314;29;20181;-75
2022/05/23 04:37:50;;;;;;;117.47;111.47;;;15.20;99.90;;;;;;4954136;28;20546;-73
2022/05/23 04:40:23;;;;;;;78.23;74.03;;;14.90;99.90;;;;;;4954147;28;20544;-73
2022/05/23 04:42:48;;;;;;;77.67;73.50;;;14.90;99.90;;;;;;4954205;28;20205;-73
2022/05/23 04:45:15;;;;;;;95.73;90.73;;;15.10;99.90;;;;;;4953935;29;20587;-73
2022/05/23 04:50:26;;;;;;;57.33;54.33;;;15.40;99.90;;;;;;4953696;29;20668;-73
2022/05/23 04:52:53;;;;;;;46.77;42.83;;;15.40;99.90;;;;;;4953812;28;20300;-73
2022/05/23 04:55:19;;;;;;;49.13;46.30;;;15.40;99.90;;;;;;4954106;29;20324;-73
2022/05/23 04:57:46;;;;;;;44.87;42.37;;;15.40;99.90;;;;;;4953036;28;20249;-73
2022/05/23 05:00:18;;;;;;;28.23;26.70;;;15.30;99.90;;;;;;4953422;28;20192;-74
2022/05/23 05:02:44;;;;;;;16.70;13.87;;;15.30;99.90;;;;;;4952724;28;20248;-73
2022/05/23 05:05:11;;;;;;;31.50;29.70;;;15.30;99.90;;;;;;4953286;28;20213;-73
2022/05/23 05:07:36;;;;;;;19.10;17.93;;;15.30;99.90;;;;;;4952299;29;20190;-73
2022/05/23 05:10:03;;;;;;;21.70;20.43;;;15.30;99.90;;;;;;4953269;28;20232;-73
2022/05/23 05:12:29;;;;;;;19.67;18.27;;;15.20;99.90;;;;;;4951493;29;20182;-73
2022/05/23 05:14:55;;;;;;;13.03;12.17;;;15.00;99.90;;;;;;4952594;28;20203;-73
2022/05/23 05:17:21;;;;;;;13.63;11.23;;;14.90;99.90;;;;;;4953449;28;20240;-72
2022/05/23 05:19:47;;;;;;;15.20;14.20;;;14.90;99.90;;;;;;4947525;29;20278;-73
2022/05/23 05:22:13;;;;;;;14.43;13.53;;;14.80;99.90;;;;;;4945165;29;20626;-72
2022/05/23 05:24:39;;;;;;;12.80;11.73;;;14.50;99.90;;;;;;4945621;29;20693;-73
2022/05/23 05:27:05;;;;;;;15.03;13.90;;;14.50;99.90;;;;;;4953249;29;20201;-73
2022/05/23 05:29:31;;;;;;;16.40;15.30;;;14.50;99.90;;;;;;4953191;29;20177;-73
2022/05/23 05:32:06;;;;;;;21.57;14.60;;;14.50;99.90;;;;;;4954375;29;20716;-73
2022/05/23 05:34:34;;;;;;;17.07;15.57;;;14.50;99.90;;;;;;4953361;28;20205;-73
2022/05/23 05:37:09;;;;;;;43.67;41.10;;;14.50;99.90;;;;;;4954310;28;20185;-73
2022/05/23 05:39:36;;;;;;;14.63;13.60;;;14.60;99.90;;;;;;4954120;28;20189;-73
2022/05/23 05:42:14;;;;;;;18.57;17.27;;;14.60;99.90;;;;;;4952783;29;20186;-73
2022/05/23 05:44:45;;;;;;;24.20;22.90;;;14.60;99.90;;;;;;4953700;28;20633;-72
2022/05/23 05:47:14;;;;;;;41.93;39.33;;;14.60;99.90;;;;;;4952873;29;20193;-73
2022/05/23 05:49:43;;;;;;;41.47;39.07;;;14.60;99.90;;;;;;4952634;29;20315;-73
2022/05/23 05:52:10;;;;;;;30.33;28.53;;;14.60;99.90;;;;;;4957524;29;20188;-73
2022/05/23 05:54:39;;;;;;;31.60;29.63;;;14.70;99.90;;;;;;4957932;28;20205;-72
2022/05/23 05:57:07;;;;;;;40.27;37.80;;;14.60;99.90;;;;;;4953771;28;20190;-72
2022/05/23 05:59:34;;;;;;;44.57;41.77;;;14.70;99.90;;;;;;4953395;29;20182;-73
2022/05/23 06:01:59;;;;;;;49.13;46.27;;;14.60;99.90;;;;;;4953583;29;20200;-73
2022/05/23 06:04:25;;;;;;;58.53;54.97;;;14.60;99.90;;;;;;4954738;28;20217;-73
2022/05/23 06:12:19;;;;;;;58.63;55.40;;;14.60;99.90;;;;;;4958001;29;20208;-74
2022/05/23 06:14:45;;;;;;;96.73;91.43;;;14.70;99.90;;;;;;4958371;28;20710;-69
2022/05/23 06:17:11;;;;;;;118.93;112.80;;;14.70;99.90;;;;;;4954774;28;20194;-69
2022/05/23 06:19:43;;;;;;;117.10;110.77;;;14.80;99.90;;;;;;4956090;28;20197;-70
2022/05/23 06:22:10;;;;;;;75.07;71.13;;;14.80;99.90;;;;;;4957817;28;20189;-70
2022/05/23 06:24:36;;;;;;;94.73;89.60;;;15.00;99.90;;;;;;4956627;28;20315;-70
2022/05/23 06:27:06;;;;;;;21.43;20.13;;;15.30;99.90;;;;;;4956700;28;20186;-70
2022/05/23 06:29:32;;;;;;;8.13;6.80;;;15.50;99.90;;;;;;4956505;28;20554;-70
2022/05/23 06:31:58;;;;;;;44.37;41.97;;;15.80;99.90;;;;;;4956696;28;20228;-69
2022/05/23 06:34:24;;;;;;;8.87;8.17;;;16.10;99.90;;;;;;4956561;28;20750;-70
2022/05/23 06:36:50;;;;;;;30.83;29.00;;;16.30;99.90;;;;;;4956321;28;20277;-70
2022/05/23 06:39:17;;;;;;;36.30;34.27;;;16.50;99.90;;;;;;4955442;29;20181;-69
2022/05/23 06:41:43;;;;;;;16.47;10.07;;;16.80;99.90;;;;;;4956586;29;20268;-69
2022/05/23 06:44:09;;;;;;;22.43;21.13;;;17.20;99.90;;;;;;4943451;28;20312;-69
2022/05/23 06:46:35;;;;;;;96.87;92.03;;;17.30;99.90;;;;;;4954509;28;20186;-69
2022/05/23 06:49:01;;;;;;;25.40;23.90;;;17.60;99.90;;;;;;4955643;29;20194;-69
2022/05/23 06:51:27;;;;;;;12.70;11.83;;;17.70;99.90;;;;;;4955870;28;20205;-69
2022/05/23 06:53:56;;;;;;;42.77;40.40;;;17.60;99.90;;;;;;4941259;29;20221;-69
2022/05/23 06:56:22;;;;;;;15.73;14.93;;;17.50;99.90;;;;;;4934280;29;20651;-70
2022/05/23 06:58:47;;;;;;;14.37;13.37;;;17.70;99.90;;;;;;4940529;28;20198;-68
2022/05/23 07:01:14;;;;;;;10.10;9.30;;;18.10;99.90;;;;;;4936635;29;20233;-68
2022/05/23 07:03:41;;;;;;;12.90;12.03;;;18.50;99.90;;;;;;4938768;29;20224;-68
2022/05/23 07:14:21;;;;;;;127.20;120.90;;;18.80;99.90;;;;;;4951926;29;20713;-68
2022/05/23 07:16:46;;;;;;;84.27;79.87;;;18.90;99.90;;;;;;4955508;28;20186;-67
2022/05/23 07:19:13;;;;;;;70.47;66.70;;;19.00;99.90;;;;;;4955515;28;20192;-68
2022/05/23 07:21:39;;;;;;;14.83;13.80;;;19.20;99.90;;;;;;4955108;28;20273;-69
2022/05/23 07:24:05;;;;;;;7.70;6.07;;;19.50;99.90;;;;;;4955091;28;20300;-69
2022/05/23 07:26:31;;;;;;;16.83;16.03;;;19.80;99.90;;;;;;4955506;29;20228;-69
2022/05/23 07:28:57;;;;;;;11.70;11.00;;;20.00;99.90;;;;;;4954462;29;20182;-69
2022/05/23 07:31:24;;;;;;;10.57;9.60;;;20.10;99.90;;;;;;4954227;29;20561;-69
2022/05/23 07:33:50;;;;;;;7.97;7.28;;;20.30;99.90;;;;;;4963639;28;20205;-68
2022/05/23 07:36:16;;;;;;;6.63;6.23;;;20.40;99.90;;;;;;4968812;28;20174;-71
2022/05/23 07:38:42;;;;;;;10.95;10.35;;;20.50;99.90;;;;;;4956776;29;20204;-69
2022/05/23 07:41:09;;;;;;;12.45;11.75;;;20.50;99.90;;;;;;4955483;28;20189;-69
2022/05/23 07:43:37;;;;;;;16.35;15.27;;;20.50;99.90;;;;;;4954530;28;20202;-69
2022/05/23 07:46:13;;;;;;;9.32;8.73;;;20.30;99.90;;;;;;4954284;29;20177;-69
2022/05/23 07:48:49;;;;;;;7.30;6.78;;;20.10;99.90;;;;;;4953575;29;20189;-69
2022/05/23 07:51:17;;;;;;;8.27;7.47;;;20.10;99.90;;;;;;4955109;29;20189;-69
2022/05/23 08:01:57;;;;;;;7.75;7.32;;;20.50;99.90;;;;;;4955152;29;20193;-69
2022/05/23 08:04:23;;;;;;;9.45;8.85;;;21.10;99.90;;;;;;4954290;28;20308;-69
2022/05/23 08:06:49;;;;;;;39.15;37.05;;;21.40;99.90;;;;;;4954632;29;20194;-69
2022/05/23 08:09:17;;;;;;;25.73;24.27;;;21.70;99.90;;;;;;4954759;29;20174;-69
2022/05/23 08:11:46;;;;;;;20.45;19.33;;;21.60;99.90;;;;;;4954458;28;20595;-69
2022/05/23 08:14:12;;;;;;;24.98;23.63;;;21.40;99.90;;;;;;4954781;28;20214;-69
2022/05/23 08:16:38;;;;;;;28.92;27.35;;;21.20;99.90;;;;;;4955252;28;20216;-70
2022/05/23 08:19:06;;;;;;;39.00;37.00;;;21.20;99.90;;;;;;4953831;29;20189;-69
2022/05/23 08:21:33;;;;;;;18.45;17.35;;;21.30;99.90;;;;;;4954735;28;20660;-70
2022/05/23 08:23:59;;;;;;;22.38;21.17;;;21.60;99.90;;;;;;4954216;28;20253;-70
2022/05/23 08:26:25;;;;;;;10.60;9.70;;;21.80;99.90;;;;;;4954233;29;20649;-69
2022/05/23 08:28:51;;;;;;;10.75;10.20;;;22.00;99.90;;;;;;4954069;28;20181;-69
2022/05/23 08:31:18;;;;;;;21.35;20.23;;;22.40;99.90;;;;;;4953875;28;20186;-69
2022/05/23 08:33:44;;;;;;;25.45;23.85;;;22.90;99.90;;;;;;4952709;28;20212;-69
2022/05/23 08:36:10;;;;;;;50.58;48.05;;;23.40;99.90;;;;;;4953363;29;20213;-69
2022/05/23 08:38:37;;;;;;;56.92;52.35;;;23.70;99.90;;;;;;4953938;29;20260;-69
2022/05/23 08:41:15;;;;;;;32.97;30.95;;;23.70;99.90;;;;;;4954062;28;20838;-69
2022/05/23 08:44:11;;;;;;;36.60;34.72;;;23.30;99.90;;;;;;4953861;28;20217;-69
2022/05/23 08:46:45;;;;;;;9.00;8.32;;;22.60;99.90;;;;;;4954524;29;20190;-71
2022/05/23 08:49:14;;;;;;;11.27;10.48;;;22.10;99.90;;;;;;4953338;29;20190;-68
2022/05/23 08:52:04;;;;;;;15.52;14.48;;;21.70;99.90;;;;;;4952487;29;20276;-68
2022/05/23 08:54:42;;;;;;;87.82;82.93;;;21.50;99.90;;;;;;4944422;28;20701;-68
2022/05/23 08:57:19;;;;;;;57.45;54.30;;;21.30;99.90;;;;;;4958263;28;20185;-71
2022/05/23 08:59:50;;;;;;;6.63;6.25;;;21.20;99.90;;;;;;4953882;28;20193;-70
2022/05/23 09:02:26;;;;;;;6.80;6.35;;;21.00;99.90;;;;;;4954255;28;20654;-71
2022/05/23 09:05:01;;;;;;;6.50;6.10;;;21.00;99.90;;;;;;4953994;28;20632;-71
2022/05/23 09:07:30;;;;;;;7.35;6.95;;;21.00;99.90;;;;;;4953511;28;20216;-69
2022/05/23 09:09:59;;;;;;;35.67;33.80;;;21.20;99.90;;;;;;4952522;29;20182;-68
2022/05/23 09:12:25;;;;;;;40.67;38.00;;;21.30;99.90;;;;;;4953746;28;20189;-69
2022/05/23 09:14:51;;;;;;;58.50;55.55;;;21.30;99.90;;;;;;4974843;23;20619;-74
2022/05/23 09:17:23;;;;;;;51.13;48.35;;;21.30;99.90;;;;;;4953789;28;20185;-72
2022/05/23 09:20:11;;;;;;;88.78;84.38;;;21.50;99.90;;;;;;4953676;28;20182;-72
2022/05/23 09:22:50;;;;;;;68.15;64.75;;;21.90;99.90;;;;;;4952281;28;20185;-73
2022/05/23 09:25:20;;;;;;;6.55;6.05;;;22.30;99.90;;;;;;4952170;28;20270;-72
2022/05/23 09:28:05;;;;;;;5.88;5.35;;;22.50;99.90;;;;;;4951561;29;20228;-72
2022/05/23 09:30:31;;;;;;;22.63;21.48;;;22.60;99.90;;;;;;4952846;29;20188;-72
2022/05/23 09:33:00;;;;;;;19.17;17.98;;;22.60;99.90;;;;;;4954100;28;20182;-72
2022/05/23 09:35:56;;;;;;;23.48;22.20;;;22.20;99.90;;;;;;4953696;28;20217;-73
2022/05/23 09:38:25;;;;;;;7.90;7.30;;;22.10;99.90;;;;;;4934032;29;20225;-72
2022/05/23 09:40:51;;;;;;;14.40;13.30;;;22.00;99.90;;;;;;4953424;28;20185;-72
2022/05/23 09:49:12;;;;;;;8.88;7.93;;;22.40;99.90;;;;;;4953892;29;20293;-72
2022/05/23 09:51:54;;;;;;;13.50;12.68;;;22.50;99.90;;;;;;4953700;28;20213;-73
2022/05/23 09:54:51;;;;;;;9.55;8.95;;;23.00;99.90;;;;;;4953156;28;20689;-73
2022/05/23 09:57:23;;;;;;;25.95;24.35;;;23.70;99.90;;;;;;4953011;28;20192;-73
2022/05/23 10:00:00;;;;;;;49.55;46.63;;;24.10;99.90;;;;;;4953098;29;20207;-73
2022/05/23 10:02:34;;;;;;;34.15;32.20;;;24.50;99.90;;;;;;4952777;28;20189;-73
2022/05/23 10:05:00;;;;;;;34.80;33.03;;;25.00;99.90;;;;;;4952010;28;20241;-72
2022/05/23 10:07:30;;;;;;;51.30;48.65;;;25.20;99.90;;;;;;4936264;28;20193;-73
2022/05/23 10:10:03;;;;;;;51.00;48.35;;;25.20;99.90;;;;;;4952000;28;20181;-73
2022/05/23 10:12:32;;;;;;;38.22;36.20;;;25.40;99.90;;;;;;4953164;29;20621;-73
2022/05/23 10:15:28;;;;;;;36.75;34.45;;;25.60;99.90;;;;;;4953072;28;20244;-73
2022/05/23 10:18:04;;;;;;;26.70;25.08;;;25.90;99.90;;;;;;4925453;29;20205;-73
2022/05/23 10:20:39;;;;;;;26.27;24.77;;;26.20;99.90;;;;;;4933592;28;21025;-73
2022/05/23 10:23:12;;;;;;;20.13;18.77;;;26.80;99.90;;;;;;4934064;29;20189;-73
2022/05/23 10:25:55;;;;;;;17.45;16.38;;;27.70;99.90;;;;;;4951276;29;20213;-73
2022/05/23 10:28:41;;;;;;;8.23;7.63;;;28.80;99.90;;;;;;4951998;28;20185;-73
2022/05/23 10:31:37;;;;;;;19.98;18.75;;;29.30;99.90;;;;;;4951006;29;20189;-72
2022/05/23 10:34:30;;;;;;;15.13;14.15;;;29.00;99.90;;;;;;4953100;28;20716;-73
2022/05/23 10:36:58;;;;;;;14.95;14.05;;;28.80;99.90;;;;;;4952267;28;20194;-72
2022/05/23 10:42:26;;;;;;;22.48;20.90;;;27.40;99.90;;;;;;4952436;29;20561;-73
2022/05/23 10:45:06;;;;;;;27.98;26.23;;;26.70;99.90;;;;;;4952556;28;20217;-73
2022/05/23 10:47:53;;;;;;;31.50;29.77;;;26.40;99.90;;;;;;4952124;28;20185;-73
2022/05/23 10:50:41;;;;;;;21.60;20.40;;;26.20;99.90;;;;;;4952538;29;20209;-72
2022/05/23 10:53:18;;;;;;;23.08;21.25;;;25.60;99.90;;;;;;4951285;28;20562;-73
2022/05/23 10:55:52;;;;;;;25.83;24.23;;;25.00;99.90;;;;;;4953425;28;20185;-72
2022/05/23 10:58:37;;;;;;;19.33;17.80;;;24.70;99.90;;;;;;4954124;29;20188;-73
2022/05/23 11:01:17;;;;;;;37.38;34.97;;;24.50;99.90;;;;;;4955876;28;20189;-73
2022/05/23 11:03:52;;;;;;;25.08;23.38;;;24.30;99.90;;;;;;4954884;28;20205;-72
2022/05/23 11:06:53;;;;;;;9.98;9.07;;;24.40;99.90;;;;;;4955795;29;20199;-72
2022/05/23 11:09:37;;;;;;;13.75;12.45;;;24.30;99.90;;;;;;4955836;29;20188;-72
2022/05/23 11:12:15;;;;;;;17.15;15.40;;;24.20;99.90;;;;;;4954165;28;20193;-72
2022/05/23 11:15:16;;;;;;;15.48;13.88;;;23.90;99.90;;;;;;4955683;29;20217;-72
2022/05/23 11:17:50;;;;;;;25.77;23.98;;;23.70;99.90;;;;;;4953959;28;20243;-72
2022/05/23 11:20:28;;;;;;;43.28;40.88;;;23.50;99.90;;;;;;4955683;28;20192;-72
2022/05/23 11:23:16;;;;;;;43.13;40.50;;;23.20;99.90;;;;;;4954419;28;20539;-75
2022/05/23 11:25:46;;;;;;;24.48;22.80;;;22.90;99.90;;;;;;4954573;29;20272;-75
2022/05/23 11:34:06;;;;;;;42.88;40.08;;;21.20;99.90;;;;;;4955306;29;20292;-75
2022/05/23 11:36:56;;;;;;;139.75;132.38;;;21.00;99.90;;;;;;4954141;28;20268;-75
2022/05/23 11:39:49;;;;;;;204.40;192.52;;;20.80;99.90;;;;;;4955424;28;20570;-75
2022/05/23 11:42:35;;;;;;;139.13;131.65;;;20.50;99.90;;;;;;4954798;28;20745;-74
2022/05/23 11:47:53;;;;;;;404.67;379.60;;;19.80;99.90;;;;;;4955223;29;20697;-74
2022/05/23 11:50:25;;;;;;;245.50;231.30;;;19.60;99.90;;;;;;4954557;28;20638;-74
2022/05/23 11:53:08;;;;;;;371.00;349.37;;;19.40;99.90;;;;;;4954153;29;20189;-73
2022/05/23 11:55:55;;;;;;;119.30;113.00;;;19.30;99.90;;;;;;4954241;29;20221;-74
2022/05/23 11:58:42;;;;;;;110.57;104.10;;;19.20;99.90;;;;;;4941298;28;20229;-73
2022/05/23 12:01:10;;;;;;;43.70;41.17;;;19.10;99.90;;;;;;4953937;28;20276;-74
2022/05/23 12:03:50;;;;;;;68.77;64.83;;;19.00;99.90;;;;;;4953188;28;20209;-74
2022/05/23 12:06:26;;;;;;;100.10;94.00;;;19.00;99.90;;;;;;4954011;28;20235;-75
2022/05/23 12:09:03;;;;;;;117.43;110.90;;;18.90;99.90;;;;;;4953293;29;20280;-76
2022/05/23 12:11:32;;;;;;;136.97;129.17;;;18.80;99.90;;;;;;4954657;28;20537;-75
2022/05/23 12:14:32;;;;;;;159.87;151.30;;;18.60;99.90;;;;;;4953365;28;20225;-79
2022/05/23 12:16:58;;;;;;;105.83;99.67;;;18.50;99.90;;;;;;4935636;28;20193;-75
2022/05/23 12:19:28;;;;;;;114.27;107.47;;;18.40;99.90;;;;;;4954310;28;20585;-76
2022/05/23 12:22:22;;;;;;;73.33;68.90;;;18.30;99.90;;;;;;4953513;29;20240;-76
2022/05/23 12:25:09;;;;;;;57.00;53.67;;;18.30;99.90;;;;;;4954418;28;20225;-75
2022/05/23 12:27:41;;;;;;;61.33;57.90;;;18.20;99.90;;;;;;4953420;29;20173;-76
2022/05/23 12:30:29;;;;;;;34.03;31.90;;;18.10;99.90;;;;;;4953696;29;20189;-75
2022/05/23 12:33:00;;;;;;;26.63;24.93;;;18.10;99.90;;;;;;4955036;29;20737;-75
2022/05/23 12:35:46;;;;;;;15.87;14.73;;;18.10;99.90;;;;;;4955490;28;20198;-76
2022/05/23 12:38:41;;;;;;;15.17;13.50;;;17.90;99.90;;;;;;4953948;28;20192;-76
2022/05/23 12:41:28;;;;;;;17.80;16.17;;;17.70;99.90;;;;;;4915811;29;20190;-77
2022/05/23 12:44:19;;;;;;;12.40;11.37;;;17.60;99.90;;;;;;4952645;28;20257;-77
2022/05/23 12:47:23;;;;;;;21.07;19.80;;;17.40;99.90;;;;;;4954061;29;20185;-76
2022/05/23 12:50:15;;;;;;;19.03;17.83;;;17.40;99.90;;;;;;4953629;29;20190;-76
2022/05/23 12:53:29;;;;;;;37.83;35.47;;;17.50;99.90;;;;;;4952366;29;20190;-80
2022/05/23 12:55:55;;;;;;;53.77;50.57;;;17.70;99.90;;;;;;4947514;29;20602;-79
2022/05/23 12:58:37;;;;;;;46.67;43.70;;;18.00;99.90;;;;;;4958797;29;20209;-80
2022/05/23 13:01:21;;;;;;;54.30;51.20;;;18.30;99.90;;;;;;4954909;29;20248;-78
2022/05/23 13:04:01;;;;;;;77.80;73.43;;;18.70;99.90;;;;;;4953293;28;20216;-79
2022/05/23 13:06:56;;;;;;;77.70;73.43;;;19.10;99.90;;;;;;4959134;29;20181;-80
2022/05/23 13:09:54;;;;;;;22.33;20.43;;;19.80;99.90;;;;;;4962098;28;20185;-79
2022/05/23 13:12:25;;;;;;;28.90;27.17;;;20.40;99.90;;;;;;4935632;28;20277;-79
2022/05/23 13:14:57;;;;;;;15.53;14.37;;;20.70;99.90;;;;;;4954197;29;20724;-80
2022/05/23 13:17:41;;;;;;;62.50;58.93;;;20.90;99.90;;;;;;4954855;28;20189;-79
2022/05/23 13:23:09;;;;;;;55.47;52.58;;;21.60;99.90;;;;;;4954614;29;20190;-78
2022/05/23 13:25:36;;;;;;;49.13;46.30;;;22.10;99.90;;;;;;4954336;28;20216;-80
2022/05/23 13:28:08;;;;;;;87.75;82.90;;;22.50;99.90;;;;;;4953085;29;20180;-78
2022/05/23 13:30:41;;;;;;;26.65;24.92;;;23.10;99.90;;;;;;4952541;28;20189;-78
2022/05/23 13:33:18;;;;;;;72.95;68.63;;;23.50;99.90;;;;;;4953643;29;20210;-75
2022/05/23 13:35:46;;;;;;;113.10;107.30;;;23.60;99.90;;;;;;4962164;28;20196;-78
2022/05/23 13:38:33;;;;;;;69.20;65.45;;;23.90;99.90;;;;;;4963421;28;20185;-78
2022/05/23 13:41:02;;;;;;;15.10;14.13;;;25.00;99.90;;;;;;4961061;29;20193;-79
2022/05/23 13:43:45;;;;;;;107.35;101.95;;;26.40;99.90;;;;;;4971017;28;20205;-79
2022/05/23 13:46:40;;;;;;;43.75;41.25;;;27.30;99.90;;;;;;4971157;28;20201;-78
2022/05/23 13:49:10;;;;;;;39.88;37.50;;;28.20;99.90;;;;;;4970582;28;20182;-78
2022/05/23 13:51:40;;;;;;;28.80;26.75;;;28.30;99.90;;;;;;4971505;28;20189;-79
2022/05/23 13:54:18;;;;;;;24.88;22.98;;;28.70;99.90;;;;;;4964788;28;20232;-79
2022/05/23 13:56:50;;;;;;;16.98;15.88;;;29.00;99.90;;;;;;4959036;28;20193;-80
2022/05/23 13:59:24;;;;;;;10.95;10.15;;;28.50;99.90;;;;;;4943083;29;20643;-80
2022/05/23 14:01:59;;;;;;;21.92;20.55;;;28.20;99.90;;;;;;4942836;29;20643;-80
2022/05/23 14:04:30;;;;;;;13.75;12.75;;;28.20;99.90;;;;;;4944842;29;20252;-86
2022/05/23 14:07:20;;;;;;;22.70;21.10;;;29.30;99.90;;;;;;4944569;29;20226;-86
2022/05/23 14:09:50;;;;;;;20.98;19.48;;;30.20;99.90;;;;;;4948789;29;20181;-86
2022/05/23 14:12:25;;;;;;;15.05;14.00;;;30.80;99.90;;;;;;4946057;28;20186;-85
2022/05/23 14:14:59;;;;;;;17.75;16.50;;;30.90;99.90;;;;;;4945931;29;20316;-83
2022/05/23 14:17:37;;;;;;;19.38;18.08;;;31.00;99.40;;;;;;4944774;29;20183;-84
2022/05/23 14:20:24;;;;;;;22.42;20.55;;;31.70;99.10;;;;;;4946429;29;20186;-83
2022/05/23 14:23:00;;;;;;;26.73;25.27;;;32.00;97.00;;;;;;4955771;29;20170;-84
2022/05/23 14:25:41;;;;;;;8.45;6.32;;;33.00;95.10;;;;;;4958217;28;20301;-84
2022/05/23 14:28:22;;;;;;;5.38;4.82;;;33.20;92.20;;;;;;4958457;28;20246;-84
2022/05/23 14:31:01;;;;;;;3.95;3.47;;;33.00;90.20;;;;;;4961431;28;20174;-84
2022/05/23 14:33:37;;;;;;;6.47;4.57;;;32.40;89.80;;;;;;4951713;28;20245;-85
2022/05/23 14:36:19;;;;;;;7.18;3.83;;;32.60;87.00;;;;;;4961222;28;20189;-84
2022/05/23 14:38:52;;;;;;;5.43;3.30;;;32.00;89.40;;;;;;4953002;28;20194;-84
2022/05/23 14:41:24;;;;;;;7.05;4.22;;;31.50;85.20;;;;;;4944404;29;20194;-85
2022/05/23 14:44:17;;;;;;;24.60;22.92;;;30.80;86.50;;;;;;4945345;29;20215;-85
2022/05/23 14:47:20;;;;;;;8.35;7.80;;;30.60;92.20;;;;;;4916639;29;20198;-83
2022/05/23 14:50:18;;;;;;;14.52;6.45;;;30.60;90.00;;;;;;4945555;29;20190;-83
2022/05/23 14:55:47;;;;;;;4.85;3.45;;;32.60;84.80;;;;;;4944214;29;20231;-83
2022/05/23 15:01:25;;;;;;;8.30;5.25;;;32.50;81.90;;;;;;4946440;29;20673;-84
2022/05/23 15:03:54;;;;;;;5.50;4.47;;;32.50;80.30;;;;;;4946921;29;20212;-84
2022/05/23 15:06:20;;;;;;;4.57;3.95;;;32.10;84.00;;;;;;4948282;29;20182;-82
2022/05/23 15:08:47;;;;;;;15.27;13.32;;;31.40;85.40;;;;;;4948749;29;20253;-84
2022/05/23 15:11:20;;;;;;;6.95;6.35;;;30.90;86.70;;;;;;4946095;29;20217;-84
2022/05/23 15:13:47;;;;;;;12.85;11.88;;;30.30;85.90;;;;;;4968408;23;20242;-76
2022/05/23 15:16:23;;;;;;;70.43;66.68;;;30.10;87.30;;;;;;4957814;28;20190;-78
2022/05/23 15:18:49;;;;;;;91.07;86.32;;;29.60;90.90;;;;;;4956372;28;20662;-78
2022/05/23 15:21:16;;;;;;;63.17;59.90;;;29.10;90.90;;;;;;4957848;29;20216;-77
2022/05/23 15:23:42;;;;;;;58.40;55.17;;;28.40;90.80;;;;;;4956310;28;20280;-77
2022/05/23 15:26:09;;;;;;;29.77;28.05;;;28.10;93.40;;;;;;4955805;28;20185;-78
2022/05/23 15:28:37;;;;;;;23.48;22.17;;;27.40;92.70;;;;;;4955389;28;20262;-78
2022/05/23 15:31:06;;;;;;;17.45;16.13;;;26.80;95.20;;;;;;4956481;28;20178;-78
2022/05/23 15:33:32;;;;;;;46.72;43.97;;;26.40;97.90;;;;;;4956681;28;20212;-78
2022/05/23 15:35:58;;;;;;;45.35;42.60;;;26.10;99.90;;;;;;4956966;28;20487;-77
2022/05/23 15:38:24;;;;;;;5.78;5.03;;;25.60;99.60;;;;;;4955855;29;20209;-78
2022/05/23 15:40:50;;;;;;;7.97;7.40;;;25.30;99.90;;;;;;4957213;28;20178;-77
2022/05/23 15:43:18;;;;;;;9.52;8.63;;;24.90;99.90;;;;;;4956712;28;20277;-78
2022/05/23 15:45:47;;;;;;;24.15;22.58;;;24.70;99.90;;;;;;4957150;28;20630;-77
2022/05/23 15:48:19;;;;;;;48.03;45.08;;;24.40;99.90;;;;;;4957346;28;20181;-78
2022/05/23 15:50:45;;;;;;;169.05;160.15;;;23.70;99.90;;;;;;4957706;28;20190;-78
2022/05/23 15:53:12;;;;;;;44.83;41.72;;;22.90;99.90;;;;;;4959132;28;20186;-76
2022/05/23 15:55:44;;;;;;;22.10;20.63;;;22.50;99.90;;;;;;4956229;29;20224;-77
2022/05/23 15:58:14;;;;;;;10.15;9.30;;;22.20;99.90;;;;;;4955089;28;20192;-77
2022/05/23 16:00:41;;;;;;;11.07;10.18;;;22.00;99.90;;;;;;4958309;28;20206;-77
2022/05/23 16:03:08;;;;;;;11.55;10.52;;;21.70;99.90;;;;;;4967136;28;20178;-77
2022/05/23 16:05:36;;;;;;;11.52;10.25;;;21.40;99.90;;;;;;4962125;29;20573;-77
2022/05/23 16:08:03;;;;;;;133.02;125.53;;;21.30;99.90;;;;;;4950715;28;20194;-77
2022/05/23 16:10:29;;;;;;;114.18;107.65;;;21.00;99.90;;;;;;4950209;29;20181;-78
2022/05/23 16:13:08;;;;;;;196.80;185.93;;;20.70;99.90;;;;;;4960528;28;20207;-78
2022/05/23 16:15:36;;;;;;;102.90;97.55;;;20.30;99.90;;;;;;4953226;29;20210;-76
2022/05/23 16:18:02;;;;;;;126.53;120.07;;;20.00;99.90;;;;;;4955563;28;20185;-77
2022/05/23 16:20:30;;;;;;;180.23;171.13;;;19.80;99.90;;;;;;4954508;29;20189;-77
2022/05/23 16:22:59;;;;;;;89.80;84.95;;;19.60;99.90;;;;;;4948700;28;20178;-76
2022/05/23 16:25:25;;;;;;;60.20;56.90;;;19.40;99.90;;;;;;4949487;29;20592;-73
2022/05/23 16:27:51;;;;;;;78.13;73.73;;;19.30;99.90;;;;;;4935149;29;20391;-73
2022/05/23 16:30:17;;;;;;;50.97;48.03;;;19.30;99.90;;;;;;4935609;29;20183;-73
2022/05/23 16:38:15;;;;;;;70.23;66.27;;;19.20;99.90;;;;;;4953790;29;20193;-72
2022/05/23 16:40:40;;;;;;;127.90;121.03;;;19.10;99.90;;;;;;4951695;28;20181;-72
2022/05/23 16:43:06;;;;;;;50.43;47.43;;;19.00;99.90;;;;;;4943858;29;20189;-74
2022/05/23 16:45:34;;;;;;;73.50;69.57;;;18.90;99.90;;;;;;4953186;28;20689;-71
2022/05/23 16:48:00;;;;;;;122.93;116.60;;;18.80;99.90;;;;;;4939392;29;20190;-72
2022/05/23 16:50:27;;;;;;;151.10;142.87;;;18.70;99.90;;;;;;4937794;28;20584;-72
2022/05/23 16:52:53;;;;;;;84.20;79.50;;;18.60;99.90;;;;;;4952052;28;20177;-72
2022/05/23 16:55:19;;;;;;;88.50;83.17;;;18.60;99.90;;;;;;4942289;28;20216;-71
2022/05/23 16:57:45;;;;;;;218.23;206.53;;;18.50;99.90;;;;;;4947650;28;20187;-71
2022/05/23 17:00:11;;;;;;;179.67;169.97;;;18.50;99.90;;;;;;4950586;28;20661;-72